WetterOnline ( https://www.wetteronline.de )

Wetter aktuell Sinsheim

Aktuelles Wetter: Waibstadt (237m)

6-stündlich | Neueste Meldungen
Ortszeit Temperatur Wetter
Sa, 31.07. 8:00 16.7° C wolkenlos
Sa, 31.07. 2:00 17.9° C wolkenlos
Fr, 30.07. 20:00 23.9° C leicht bewölkt
Fr, 30.07. 14:00 24.7° C wolkenlos
Fr, 30.07. 8:00 15.7° C wolkenlos
Fr, 30.07. 2:00 13.5° C wolkenlos
Do, 29.07. 20:00 21.4° C wolkenlos
Do, 29.07. 14:00 22.1° C fast wolkenlos
Ortszeit Temperatur Wetter
Sa, 31.07. 11:30 20.8° C leicht bewölkt
Sa, 31.07. 11:20 20.8° C leicht bewölkt
Sa, 31.07. 11:10 19.8° C leicht bewölkt
Sa, 31.07. 11:00 20.6° C leicht bewölkt
Sa, 31.07. 10:50 20.6° C leicht bewölkt
Sa, 31.07. 10:40 20.3° C fast wolkenlos
Sa, 31.07. 10:30 19.9° C wolkenlos
Sa, 31.07. 10:00 19.0° C wolkenlos
Sa, 31.07. 9:30 18.6° C wolkenlos
Sa, 31.07. 9:00 18.0° C wolkenlos
Sa, 31.07. 8:30 17.3° C wolkenlos
Ortszeit Relative Feuchte Sichtweite
Sa, 31.07. 8:00 70% 50 km
Sa, 31.07. 2:00 72% 55 km
Fr, 30.07. 20:00 59% 50 km
Fr, 30.07. 14:00 53% 45 km
Fr, 30.07. 8:00 82% 45 km
Fr, 30.07. 2:00 89% 45 km
Do, 29.07. 20:00 52% 50 km
Do, 29.07. 14:00 51% 40 km
Ortszeit Relative Feuchte Sichtweite
Sa, 31.07. 11:30 56% 65 km
Sa, 31.07. 11:20 56% -
Sa, 31.07. 11:10 57% -
Sa, 31.07. 11:00 58% >70 km
Sa, 31.07. 10:50 58% -
Sa, 31.07. 10:40 57% -
Sa, 31.07. 10:30 58% 55 km
Sa, 31.07. 10:00 59% 55 km
Sa, 31.07. 9:30 63% 50 km
Sa, 31.07. 9:00 64% 40 km
Sa, 31.07. 8:30 67% 50 km
Ortszeit Niederschlagsmenge Niederschlagsart
Sa, 31.07. 8:00 0.0 l/m2 in 12 Std. -
Sa, 31.07. 2:00 0.0 l/m2 in 6 Std. -
Fr, 30.07. 20:00 0.1 l/m2 in 12 Std. Niederschlag
Fr, 30.07. 14:00 0.0 l/m2 in 6 Std. -
Fr, 30.07. 8:00 0.0 l/m2 in 12 Std. -
Fr, 30.07. 2:00 0.0 l/m2 in 6 Std. -
Do, 29.07. 20:00 0.0 l/m2 in 12 Std. -
Do, 29.07. 14:00 0.0 l/m2 in 6 Std. -
Ortszeit Niederschlagsmenge Niederschlagsart
Sa, 31.07. 11:30 0.0 l/m2 in 1 Std. -
Sa, 31.07. 11:20 keine Meldung -
Sa, 31.07. 11:10 keine Meldung -
Sa, 31.07. 11:00 0.0 l/m2 in 1 Std. -
Sa, 31.07. 10:50 keine Meldung -
Sa, 31.07. 10:40 keine Meldung -
Sa, 31.07. 10:30 0.0 l/m2 in 1 Std. -
Sa, 31.07. 10:00 0.0 l/m2 in 1 Std. -
Sa, 31.07. 9:30 0.0 l/m2 in 1 Std. -
Sa, 31.07. 9:00 0.0 l/m2 in 1 Std. -
Sa, 31.07. 8:30 0.0 l/m2 in 1 Std. -
Ortszeit Stärke Spitze Richtung
km/h Bft. km/h Grad Sektor
Sa, 31.07. 8:00 15 3 24 240° SW
Sa, 31.07. 2:00 13 3 28 250° W
Fr, 30.07. 20:00 11 2 40 260° W
Fr, 30.07. 14:00 14 3 32 250° W
Fr, 30.07. 8:00 6 1 9 90° O
Fr, 30.07. 2:00 4 1 18 100° O
Do, 29.07. 20:00 9 2 39 300° NW
Do, 29.07. 14:00 22 4 43 260° W
Ortszeit Stärke Spitze Richtung
km/h Bft. km/h Grad Sektor
Sa, 31.07. 11:30 22 4 40 260° W
Sa, 31.07. 11:20 22 4 - 260° W
Sa, 31.07. 11:10 22 4 - 280° W
Sa, 31.07. 11:00 22 4 43 250° W
Sa, 31.07. 10:50 22 4 - 250° W
Sa, 31.07. 10:40 22 4 - 250° W
Sa, 31.07. 10:30 19 3 44 270° W
Sa, 31.07. 10:00 19 3 30 250° W
Sa, 31.07. 9:30 14 3 25 260° W
Sa, 31.07. 9:00 15 3 28 240° SW
Sa, 31.07. 8:30 13 3 28 240° SW
Ortszeit Untergrenze Bedeckung Gattung
total tief tief mittel hoch
Sa, 31.07. 8:00 - 0/8 0/8 - - -
Sa, 31.07. 2:00 - 0/8 0/8 - - -
Fr, 30.07. 20:00 1500 m 4/8 4/8 - - -
Fr, 30.07. 14:00 - 0/8 0/8 - - -
Fr, 30.07. 8:00 - 0/8 0/8 - - -
Fr, 30.07. 2:00 - 0/8 0/8 - - -
Do, 29.07. 20:00 - 0/8 0/8 - - -
Do, 29.07. 14:00 1500 m 0/8 0/8 - - -
Ortszeit Bedeckungsgrad in Achtel und Wolkenuntergrenze
Sa, 31.07. 11:30 3(1290m)
Sa, 31.07. 11:20 3(1290m)
Sa, 31.07. 11:10 2(1200m)
Sa, 31.07. 11:00 2(1200m)
Sa, 31.07. 10:50 2(1200m)
Sa, 31.07. 10:40 1(1170m)
Sa, 31.07. 10:30 keine Wolken
Sa, 31.07. 10:00 keine Wolken
Sa, 31.07. 9:30 keine Wolken
Sa, 31.07. 9:00 keine Wolken
Sa, 31.07. 8:30 keine Wolken
Ortszeit Luftdruck NN (hPa) Tendenz (hPa in 3 Std.)
Sa, 31.07. 8:00 1012 + 0,5
Sa, 31.07. 2:00 1011 + 1,4
Fr, 30.07. 20:00 1008 0,0
Fr, 30.07. 14:00 1010 - 1,3
Fr, 30.07. 8:00 1013 - 0,5
Fr, 30.07. 2:00 1014 - 0,2
Do, 29.07. 20:00 1013 - 0,7
Do, 29.07. 14:00 1015 - 0,4
Ortszeit Luftdruck NN (hPa) Tendenz (hPa in 3 Std.)
Sa, 31.07. 11:30 1011 - 0,1
Sa, 31.07. 11:20 1011 keine Meldung
Sa, 31.07. 11:10 1012 keine Meldung
Sa, 31.07. 11:00 1011 0,0
Sa, 31.07. 10:50 1011 keine Meldung
Sa, 31.07. 10:40 1011 keine Meldung
Sa, 31.07. 10:30 1011 + 0,1
Sa, 31.07. 10:00 1012 + 0,4
Sa, 31.07. 9:30 1012 + 0,4
Sa, 31.07. 9:00 1012 + 0,6
Sa, 31.07. 8:30 1012 + 0,7
Ortszeit Schneehöhe (cm)
Sa, 31.07. 8:00 -
Sa, 31.07. 2:00 -
Fr, 30.07. 20:00 -
Fr, 30.07. 14:00 -
Fr, 30.07. 8:00 -
Fr, 30.07. 2:00 -
Do, 29.07. 20:00 -
Do, 29.07. 14:00 -
Ortszeit Schneehöhe (cm)
Sa, 31.07. 11:30 -
Sa, 31.07. 11:20 -
Sa, 31.07. 11:10 -
Sa, 31.07. 11:00 -
Sa, 31.07. 10:50 -
Sa, 31.07. 10:40 -
Sa, 31.07. 10:30 -
Sa, 31.07. 10:00 -
Sa, 31.07. 9:30 -
Sa, 31.07. 9:00 -
Sa, 31.07. 8:30 -
Link zu dieser Seite / Seite empfehlen

Das Wetter in ...